createdAt,value
2018-12-01T00:01:12.420Z,5.03
2018-12-01T00:03:40.708Z,5.37
2018-12-01T00:06:08.967Z,6.33
2018-12-01T00:08:37.184Z,4.70
2018-12-01T00:11:05.621Z,5.27
2018-12-01T00:13:33.867Z,4.10
2018-12-01T00:16:02.128Z,4.40
2018-12-01T00:18:30.352Z,4.87
2018-12-01T00:20:58.559Z,4.93
2018-12-01T00:23:26.843Z,9.20
2018-12-01T00:25:55.103Z,5.77
2018-12-01T00:28:23.408Z,4.63
2018-12-01T00:30:51.659Z,5.27
2018-12-01T00:33:19.884Z,4.90
2018-12-01T00:35:48.150Z,6.10
2018-12-01T00:38:16.409Z,5.03
2018-12-01T00:40:44.631Z,5.43
2018-12-01T00:43:12.873Z,5.60
2018-12-01T00:45:41.096Z,5.03
2018-12-01T00:48:09.331Z,5.00
2018-12-01T00:50:37.567Z,5.30
2018-12-01T00:53:05.780Z,5.27
2018-12-01T00:55:34.003Z,5.50
2018-12-01T00:58:02.244Z,4.60
2018-12-01T01:00:30.518Z,5.23
2018-12-01T01:02:59.568Z,5.77
2018-12-01T01:05:28.551Z,5.00
2018-12-01T01:07:57.139Z,4.70
2018-12-01T01:10:25.927Z,4.80
2018-12-01T01:12:54.178Z,4.50
2018-12-01T01:15:22.428Z,5.00
2018-12-01T01:17:50.647Z,4.27
2018-12-01T01:20:19.555Z,4.17
2018-12-01T01:22:47.907Z,4.83
2018-12-01T01:25:16.166Z,4.67
2018-12-01T01:27:44.440Z,5.73
2018-12-01T01:30:14.325Z,4.73
2018-12-01T01:32:42.583Z,4.73
2018-12-01T01:35:11.778Z,4.60
2018-12-01T01:37:40.036Z,4.73
2018-12-01T01:40:11.742Z,4.77
2018-12-01T01:42:40.039Z,4.43
2018-12-01T01:45:11.946Z,5.10
2018-12-01T01:47:40.343Z,4.40
2018-12-01T01:50:10.164Z,4.73
2018-12-01T01:52:38.391Z,4.57
2018-12-01T01:55:07.471Z,4.53
2018-12-01T01:57:36.185Z,5.67
2018-12-01T02:00:06.271Z,4.37
2018-12-01T02:02:34.516Z,5.20
2018-12-01T02:05:02.728Z,4.57
2018-12-01T02:07:30.940Z,4.87
2018-12-01T02:09:59.168Z,4.27
2018-12-01T02:12:27.412Z,3.80
2018-12-01T02:14:55.631Z,4.73
2018-12-01T02:17:23.871Z,5.13
2018-12-01T02:19:52.352Z,4.50
2018-12-01T02:22:20.586Z,4.60
2018-12-01T02:24:48.837Z,4.20
2018-12-01T02:27:17.343Z,5.10
2018-12-01T02:29:45.589Z,4.47
2018-12-01T02:32:13.808Z,4.87
2018-12-01T02:34:42.050Z,4.37
2018-12-01T02:37:10.332Z,4.47
2018-12-01T02:39:38.578Z,4.37
2018-12-01T02:42:06.851Z,4.00
2018-12-01T02:44:40.593Z,4.43
2018-12-01T02:47:08.946Z,4.33
2018-12-01T02:49:37.280Z,4.13
2018-12-01T02:52:06.168Z,5.77
2018-12-01T02:54:35.101Z,4.43
2018-12-01T02:57:03.368Z,3.83
2018-12-01T02:59:31.593Z,4.53
2018-12-01T03:01:59.849Z,4.63
2018-12-01T03:04:28.088Z,4.03
2018-12-01T03:06:56.308Z,4.60
2018-12-01T03:09:24.532Z,4.67
2018-12-01T03:11:52.760Z,4.80
2018-12-01T03:14:20.999Z,4.90
2018-12-01T03:16:49.260Z,4.90
2018-12-01T03:19:17.480Z,5.20
2018-12-01T03:21:45.700Z,4.77
2018-12-01T03:24:14.739Z,4.93
2018-12-01T03:26:42.987Z,4.83
2018-12-01T03:29:11.196Z,4.70
2018-12-01T03:31:39.429Z,5.10
2018-12-01T03:34:07.743Z,5.67
2018-12-01T03:36:36.104Z,5.30
2018-12-01T03:39:06.109Z,5.47
2018-12-01T03:41:34.484Z,5.73
2018-12-01T03:44:02.759Z,5.20
2018-12-01T03:46:30.998Z,4.90
2018-12-01T03:48:59.211Z,5.53
2018-12-01T03:51:27.928Z,5.10
2018-12-01T03:53:56.181Z,5.30
2018-12-01T03:56:24.396Z,5.13
2018-12-01T03:58:52.623Z,4.93
2018-12-01T04:01:20.851Z,4.47
2018-12-01T04:03:49.120Z,4.53
2018-12-01T04:06:17.344Z,4.60
2018-12-01T04:08:45.564Z,4.87
2018-12-01T04:11:14.084Z,5.17
2018-12-01T04:13:42.356Z,5.50
2018-12-01T04:16:10.637Z,5.17
2018-12-01T04:18:38.878Z,4.73
2018-12-01T04:21:07.155Z,5.47
2018-12-01T04:23:35.390Z,5.00
2018-12-01T04:26:03.620Z,5.00
2018-12-01T04:28:31.883Z,4.27
2018-12-01T04:31:00.121Z,4.07
2018-12-01T04:33:28.369Z,4.40
2018-12-01T04:35:56.580Z,3.90
2018-12-01T04:38:25.127Z,4.40
2018-12-01T04:40:53.384Z,4.90
2018-12-01T04:43:21.655Z,4.60
2018-12-01T04:45:50.256Z,4.93
2018-12-01T04:48:18.513Z,3.83
2018-12-01T04:50:46.747Z,4.00
2018-12-01T04:53:15.035Z,4.23
2018-12-01T04:55:43.265Z,4.47
2018-12-01T04:58:11.504Z,5.33
2018-12-01T05:00:40.254Z,3.83
2018-12-01T05:03:08.536Z,4.13
2018-12-01T05:05:36.828Z,4.17
2018-12-01T05:08:05.121Z,5.50
2018-12-01T05:10:33.340Z,4.20
2018-12-01T05:13:01.576Z,4.30
2018-12-01T05:15:29.839Z,4.57
2018-12-01T05:17:58.090Z,4.87
2018-12-01T05:20:26.352Z,4.07
2018-12-01T05:22:54.580Z,5.27
2018-12-01T05:25:22.842Z,5.40
2018-12-01T05:27:51.056Z,4.57
2018-12-01T05:30:19.329Z,4.63
2018-12-01T05:32:47.551Z,5.03
2018-12-01T05:35:17.411Z,5.30
2018-12-01T05:37:45.650Z,4.67
2018-12-01T05:40:13.896Z,5.03
2018-12-01T05:42:42.192Z,4.80
2018-12-01T05:45:11.156Z,4.70
2018-12-01T05:47:39.447Z,4.93
2018-12-01T05:50:08.037Z,4.60
2018-12-01T05:52:36.256Z,4.83
2018-12-01T05:55:05.083Z,6.23
2018-12-01T05:57:33.295Z,7.50
2018-12-01T06:00:01.531Z,8.43
2018-12-01T06:02:29.808Z,8.47
2018-12-01T06:04:58.020Z,7.80
2018-12-01T06:07:26.288Z,6.57
2018-12-01T06:09:54.500Z,5.63
2018-12-01T06:12:22.712Z,5.60
2018-12-01T06:14:50.960Z,5.30
2018-12-01T06:17:19.224Z,5.23
2018-12-01T06:19:47.483Z,5.77
2018-12-01T06:22:15.692Z,5.33
2018-12-01T06:24:43.908Z,4.53
2018-12-01T06:27:12.160Z,4.77
2018-12-01T06:29:40.384Z,5.57
2018-12-01T06:32:08.628Z,5.20
2018-12-01T06:34:36.890Z,5.57
2018-12-01T06:37:05.112Z,5.67
2018-12-01T06:39:33.340Z,6.27
2018-12-01T06:42:01.576Z,5.07
2018-12-01T06:44:29.839Z,5.93
2018-12-01T06:46:58.056Z,5.53
2018-12-01T06:49:26.288Z,5.67
2018-12-01T06:51:54.500Z,5.90
2018-12-01T06:54:22.719Z,5.40
2018-12-01T06:56:50.984Z,6.43
2018-12-01T06:59:19.215Z,6.37
2018-12-01T07:01:47.460Z,6.80
2018-12-01T07:04:15.693Z,7.17
2018-12-01T07:06:43.908Z,7.20
2018-12-01T07:09:12.153Z,8.43
2018-12-01T07:11:40.361Z,8.03
2018-12-01T07:14:08.588Z,7.87
2018-12-01T07:16:36.817Z,8.87
2018-12-01T07:19:16.283Z,7.57
2018-12-01T07:21:44.511Z,7.90
2018-12-01T07:24:12.731Z,7.07
2018-12-01T07:26:41.019Z,7.47
2018-12-01T07:29:09.236Z,8.13
2018-12-01T07:31:37.501Z,7.63
2018-12-01T07:34:06.072Z,7.00
2018-12-01T07:36:34.341Z,6.27
2018-12-01T07:39:02.651Z,7.13
2018-12-01T07:41:31.308Z,7.20
2018-12-01T07:43:59.567Z,7.33
2018-12-01T07:46:27.784Z,8.03
2018-12-01T07:48:56.051Z,7.07
2018-12-01T07:51:24.291Z,9.03
2018-12-01T07:53:52.504Z,6.80
2018-12-01T07:56:20.753Z,6.57
2018-12-01T07:58:48.975Z,7.10
2018-12-01T08:01:18.200Z,7.00
2018-12-01T08:03:46.444Z,7.33
2018-12-01T08:06:14.673Z,6.10
2018-12-01T08:08:43.031Z,6.37
2018-12-01T08:11:11.410Z,6.90
2018-12-01T08:13:39.657Z,7.27
2018-12-01T08:16:07.900Z,6.53
2018-12-01T08:18:36.157Z,7.20
2018-12-01T08:21:04.503Z,6.13
2018-12-01T08:23:32.749Z,6.77
2018-12-01T08:26:01.032Z,6.77
2018-12-01T08:28:29.318Z,6.63
2018-12-01T08:30:57.621Z,6.37
2018-12-01T08:33:25.876Z,7.00
2018-12-01T08:35:54.088Z,6.07
2018-12-01T08:38:22.314Z,7.33
2018-12-01T08:40:50.546Z,7.00
2018-12-01T08:43:18.769Z,6.40
2018-12-01T08:45:47.027Z,5.73
2018-12-01T08:48:15.260Z,6.47
2018-12-01T08:50:45.071Z,7.40
2018-12-01T08:53:13.327Z,6.33
2018-12-01T08:55:41.543Z,6.67
2018-12-01T08:58:09.795Z,7.10
2018-12-01T09:00:39.754Z,6.93
2018-12-01T09:03:12.118Z,7.40
2018-12-01T09:05:40.340Z,6.40
2018-12-01T09:08:08.561Z,6.80
2018-12-01T09:10:36.828Z,6.93
2018-12-01T09:13:05.061Z,8.45
2018-12-01T09:15:36.850Z,7.20
2018-12-01T09:18:01.548Z,6.03
2018-12-01T09:20:29.771Z,7.03
2018-12-01T09:22:58.040Z,6.07
2018-12-01T09:25:26.289Z,6.33
2018-12-01T09:27:54.525Z,6.23
2018-12-01T09:30:23.385Z,7.53
2018-12-01T09:32:51.614Z,6.33
2018-12-01T09:35:19.860Z,6.67
2018-12-01T09:37:48.119Z,6.43
2018-12-01T09:40:16.869Z,6.67
2018-12-01T09:42:45.141Z,7.07
2018-12-01T09:45:17.640Z,6.60
2018-12-01T09:47:46.462Z,7.27
2018-12-01T09:50:14.929Z,6.97
2018-12-01T09:52:43.354Z,6.50
2018-12-01T09:55:12.192Z,6.10
2018-12-01T09:57:40.873Z,6.47
2018-12-01T10:00:11.877Z,6.20
2018-12-01T10:02:40.115Z,7.13
2018-12-01T10:05:09.153Z,6.47
2018-12-01T10:07:37.377Z,6.43
2018-12-01T10:10:08.244Z,6.00
2018-12-01T10:12:36.493Z,6.50
2018-12-01T10:15:06.012Z,6.87
2018-12-01T10:17:34.323Z,6.17
2018-12-01T10:20:02.561Z,6.63
2018-12-01T10:22:31.684Z,7.53
2018-12-01T10:24:59.928Z,6.37
2018-12-01T10:27:28.196Z,5.83
2018-12-01T10:29:56.548Z,7.00
2018-12-01T10:32:24.777Z,6.90
2018-12-01T10:34:53.000Z,6.60
2018-12-01T10:37:21.239Z,6.80
2018-12-01T10:39:49.452Z,7.43
2018-12-01T10:42:17.676Z,6.40
2018-12-01T10:44:46.496Z,7.27
2018-12-01T10:47:14.749Z,7.47
2018-12-01T10:49:42.968Z,7.20
2018-12-01T10:52:11.206Z,7.13
2018-12-01T10:54:40.468Z,7.60
2018-12-01T10:57:08.720Z,6.83
2018-12-01T10:59:36.977Z,7.13
2018-12-01T11:02:11.052Z,7.53
2018-12-01T11:04:40.076Z,8.30
2018-12-01T11:07:08.795Z,8.50
2018-12-01T11:09:37.030Z,9.37
2018-12-01T11:12:05.993Z,7.33
2018-12-01T11:14:34.241Z,8.83
2018-12-01T11:17:02.568Z,8.93
2018-12-01T11:19:30.794Z,7.97
2018-12-01T11:21:59.012Z,8.13
2018-12-01T11:24:28.230Z,9.63
2018-12-01T11:26:56.600Z,9.77
2018-12-01T11:29:24.829Z,9.10
2018-12-01T11:31:53.053Z,9.10
2018-12-01T11:34:21.287Z,8.83
2018-12-01T11:36:49.557Z,9.27
2018-12-01T11:39:18.445Z,9.70
2018-12-01T11:41:46.688Z,9.00
2018-12-01T11:44:14.913Z,9.63
2018-12-01T11:46:43.520Z,8.53
2018-12-01T11:49:11.787Z,7.50
2018-12-01T11:51:39.996Z,10.00
2018-12-01T11:54:08.225Z,9.07
2018-12-01T11:56:36.457Z,9.53
2018-12-01T11:59:04.724Z,8.47
2018-12-01T12:01:32.986Z,9.33
2018-12-01T12:04:01.203Z,9.67
2018-12-01T12:06:29.485Z,9.30
2018-12-01T12:08:57.733Z,10.00
2018-12-01T12:11:25.963Z,9.47
2018-12-01T12:13:54.369Z,9.97
2018-12-01T12:16:22.778Z,9.27
2018-12-01T12:18:51.053Z,9.37
2018-12-01T12:21:19.271Z,9.37
2018-12-01T12:23:47.621Z,9.10
2018-12-01T12:26:17.107Z,8.77
2018-12-01T12:28:45.392Z,9.50
2018-12-01T12:31:13.706Z,9.50
2018-12-01T12:33:41.940Z,10.90
2018-12-01T12:36:10.156Z,9.63
2018-12-01T12:38:38.506Z,9.40
2018-12-01T12:41:06.715Z,10.83
2018-12-01T12:43:34.921Z,10.70
2018-12-01T12:46:03.157Z,11.13
2018-12-01T12:48:31.372Z,10.90
2018-12-01T12:50:59.624Z,11.63
2018-12-01T12:53:27.853Z,11.43
2018-12-01T12:55:56.092Z,11.67
2018-12-01T12:58:24.331Z,11.37
2018-12-01T13:00:52.587Z,10.47
2018-12-01T13:03:20.850Z,11.30
2018-12-01T13:05:49.143Z,10.47
2018-12-01T13:08:18.016Z,11.23
2018-12-01T13:10:46.457Z,11.07
2018-12-01T13:13:14.674Z,10.60
2018-12-01T13:15:42.955Z,12.40
2018-12-01T13:18:12.687Z,10.83
2018-12-01T13:20:41.864Z,10.33
2018-12-01T13:23:10.103Z,11.30
2018-12-01T13:25:38.832Z,10.50
2018-12-01T13:28:08.052Z,11.00
2018-12-01T13:30:39.420Z,11.17
2018-12-01T13:33:07.715Z,10.57
2018-12-01T13:35:35.936Z,12.00
2018-12-01T13:38:04.612Z,11.43
2018-12-01T13:40:32.861Z,12.67
2018-12-01T13:43:01.086Z,10.40
2018-12-01T13:45:29.761Z,10.80
2018-12-01T13:47:58.064Z,11.10
2018-12-01T13:50:26.277Z,10.30
2018-12-01T13:52:55.592Z,9.83
2018-12-01T13:55:23.835Z,9.80
2018-12-01T13:57:52.200Z,9.73
2018-12-01T14:00:21.059Z,10.03
2018-12-01T14:02:49.492Z,9.43
2018-12-01T14:05:17.770Z,10.87
2018-12-01T14:07:45.996Z,11.90
2018-12-01T14:10:17.471Z,11.40
2018-12-01T14:12:46.344Z,11.33
2018-12-01T14:15:15.970Z,12.40
2018-12-01T14:17:44.244Z,12.20
2018-12-01T14:20:13.676Z,10.67
2018-12-01T14:22:42.134Z,12.43
2018-12-01T14:25:10.825Z,10.57
2018-12-01T14:27:39.429Z,11.70
2018-12-01T14:30:09.008Z,11.53
2018-12-01T14:32:37.270Z,11.53
2018-12-01T14:35:07.660Z,11.03
2018-12-01T14:37:35.918Z,11.70
2018-12-01T14:40:04.876Z,11.13
2018-12-01T14:42:33.159Z,11.70
2018-12-01T14:45:01.481Z,10.77
2018-12-01T14:47:29.711Z,9.90
2018-12-01T14:49:57.952Z,10.60
2018-12-01T14:52:26.192Z,11.97
2018-12-01T14:54:55.315Z,11.00
2018-12-01T14:57:23.536Z,8.77
2018-12-01T14:59:52.261Z,9.60
2018-12-01T15:02:20.615Z,10.27
2018-12-01T15:04:48.883Z,9.07
2018-12-01T15:07:17.148Z,9.20
2018-12-01T15:09:45.469Z,9.20
2018-12-01T15:12:13.785Z,11.27
2018-12-01T15:14:42.011Z,10.60
2018-12-01T15:17:10.309Z,10.43
2018-12-01T15:19:38.596Z,9.77
2018-12-01T15:22:06.881Z,11.33
2018-12-01T15:24:35.215Z,10.53
2018-12-01T15:27:03.432Z,11.10
2018-12-01T15:29:31.648Z,10.57
2018-12-01T15:31:59.911Z,10.70
2018-12-01T15:34:28.904Z,10.67
2018-12-01T15:36:57.587Z,10.87
2018-12-01T15:39:27.211Z,10.97
2018-12-01T15:41:56.424Z,9.13
2018-12-01T15:44:24.320Z,10.70
2018-12-01T15:46:52.920Z,9.43
2018-12-01T15:49:21.200Z,11.00
2018-12-01T15:51:49.772Z,9.67
2018-12-01T15:54:18.629Z,10.70
2018-12-01T15:56:47.460Z,9.83
2018-12-01T15:59:15.703Z,9.90
2018-12-01T16:01:43.931Z,10.07
2018-12-01T16:04:12.159Z,11.60
2018-12-01T16:06:40.404Z,12.23
2018-12-01T16:09:09.157Z,11.35
2018-12-01T16:11:37.395Z,9.93
2018-12-01T16:14:07.095Z,11.30
2018-12-01T16:16:35.495Z,10.63
2018-12-01T16:19:03.720Z,8.43
2018-12-01T16:21:32.971Z,8.80
2018-12-01T16:24:01.203Z,7.40
2018-12-01T16:26:29.608Z,8.00
2018-12-01T16:28:57.856Z,8.07
2018-12-01T16:31:26.205Z,7.37
2018-12-01T16:33:54.502Z,9.80
2018-12-01T16:36:22.748Z,12.85
2018-12-01T16:38:51.023Z,10.97
2018-12-01T16:41:21.108Z,9.73
2018-12-01T16:43:49.359Z,9.13
2018-12-01T16:46:17.658Z,8.03
2018-12-01T16:48:45.972Z,7.67
2018-12-01T16:51:14.321Z,9.17
2018-12-01T16:53:42.530Z,8.53
2018-12-01T16:56:10.745Z,9.60
2018-12-01T16:58:40.215Z,9.43
2018-12-01T17:01:09.991Z,8.67
2018-12-01T17:03:38.216Z,10.37
2018-12-01T17:06:08.533Z,10.70
2018-12-01T17:08:37.390Z,10.17
2018-12-01T17:11:06.312Z,9.43
2018-12-01T17:13:34.579Z,9.30
2018-12-01T17:16:02.819Z,9.70
2018-12-01T17:18:31.068Z,10.00
2018-12-01T17:20:59.309Z,9.67
2018-12-01T17:23:27.658Z,10.43
2018-12-01T17:25:56.177Z,10.17
2018-12-01T17:28:24.385Z,8.90
2018-12-01T17:30:53.229Z,9.83
2018-12-01T17:33:21.543Z,8.63
2018-12-01T17:35:50.031Z,9.00
2018-12-01T17:38:19.048Z,9.40
2018-12-01T17:40:48.478Z,8.03
2018-12-01T17:43:18.849Z,10.50
2018-12-01T17:45:47.060Z,8.73
2018-12-01T17:48:15.320Z,7.03
2018-12-01T17:50:43.549Z,6.80
2018-12-01T17:53:11.759Z,7.07
2018-12-01T17:55:39.979Z,6.90
2018-12-01T17:58:08.987Z,7.10
2018-12-01T18:00:37.324Z,7.17
2018-12-01T18:03:06.049Z,7.30
2018-12-01T18:05:40.432Z,7.57
2018-12-01T18:08:10.695Z,7.47
2018-12-01T18:10:39.051Z,8.23
2018-12-01T18:13:07.295Z,7.97
2018-12-01T18:15:35.515Z,8.80
2018-12-01T18:18:03.765Z,9.50
2018-12-01T18:20:31.978Z,9.47
2018-12-01T18:23:00.876Z,9.40
2018-12-01T18:25:30.766Z,9.47
2018-12-01T18:27:59.227Z,10.27
2018-12-01T18:30:29.219Z,10.67
2018-12-01T18:32:58.501Z,10.30
2018-12-01T18:35:26.755Z,11.40
2018-12-01T18:37:55.033Z,11.13
2018-12-01T18:40:23.299Z,10.27
2018-12-01T18:42:52.110Z,10.33
2018-12-01T18:45:20.928Z,12.85
2018-12-01T18:47:49.226Z,12.17
2018-12-01T18:50:18.792Z,10.23
2018-12-01T18:52:50.571Z,10.40
2018-12-01T18:55:18.800Z,10.37
2018-12-01T18:57:47.016Z,10.10
2018-12-01T19:00:16.057Z,10.53
2018-12-01T19:02:44.700Z,10.90
2018-12-01T19:05:12.976Z,10.90
2018-12-01T19:07:41.768Z,9.67
2018-12-01T19:10:13.424Z,16.13
2018-12-01T19:12:41.918Z,14.37
2018-12-01T19:15:10.787Z,12.23
2018-12-01T19:17:39.020Z,12.80
2018-12-01T19:20:08.476Z,12.70
2018-12-01T19:22:36.775Z,14.10
2018-12-01T19:25:06.344Z,14.87
2018-12-01T19:27:34.580Z,15.70
2018-12-01T19:30:05.374Z,14.97
2018-12-01T19:32:31.143Z,15.87
2018-12-01T19:34:59.360Z,15.87
2018-12-01T19:37:27.632Z,17.47
2018-12-01T19:39:55.922Z,17.20
2018-12-01T19:42:25.340Z,21.12
2018-12-01T19:44:53.623Z,17.77
2018-12-01T19:47:21.847Z,15.23
2018-12-01T19:49:50.131Z,15.63
2018-12-01T19:52:18.348Z,14.90
2018-12-01T19:54:46.615Z,15.30
2018-12-01T19:57:14.852Z,14.70
2018-12-01T19:59:43.122Z,13.27
2018-12-01T20:02:11.384Z,14.00
2018-12-01T20:04:40.282Z,13.57
2018-12-01T20:07:08.505Z,13.10
2018-12-01T20:09:36.739Z,13.77
2018-12-01T20:12:05.477Z,13.53
2018-12-01T20:14:33.744Z,14.23
2018-12-01T20:17:01.980Z,14.10
2018-12-01T20:19:30.213Z,13.90
2018-12-01T20:21:58.554Z,13.87
2018-12-01T20:24:26.814Z,14.20
2018-12-01T20:26:55.047Z,17.20
2018-12-01T20:29:23.343Z,15.77
2018-12-01T20:31:51.744Z,14.77
2018-12-01T20:34:19.967Z,15.23
2018-12-01T20:36:49.823Z,15.30
2018-12-01T20:39:33.560Z,14.67
2018-12-01T20:42:01.889Z,14.40
2018-12-01T20:44:30.153Z,14.87
2018-12-01T20:46:58.411Z,14.27
2018-12-01T20:49:26.647Z,14.97
2018-12-01T20:51:56.072Z,16.37
2018-12-01T20:54:30.897Z,16.63
2018-12-01T20:57:01.609Z,16.17
2018-12-01T20:59:29.852Z,19.30
2018-12-01T21:01:58.069Z,20.80
2018-12-01T21:04:26.293Z,17.90
2018-12-01T21:06:55.136Z,19.83
2018-12-01T21:09:23.376Z,18.97
2018-12-01T21:11:51.616Z,18.87
2018-12-01T21:14:19.942Z,21.43
2018-12-01T21:16:48.484Z,19.97
2018-12-01T21:19:19.129Z,22.60
2018-12-01T21:21:46.748Z,20.57
2018-12-01T21:24:15.016Z,20.20
2018-12-01T21:26:43.243Z,19.37
2018-12-01T21:29:11.473Z,19.47
2018-12-01T21:31:39.724Z,19.73
2018-12-01T21:34:07.974Z,19.90
2018-12-01T21:36:36.216Z,18.13
2018-12-01T21:39:05.984Z,18.53
2018-12-01T21:41:34.288Z,16.97
2018-12-01T21:44:02.727Z,16.80
2018-12-01T21:46:30.984Z,15.07
2018-12-01T21:48:59.211Z,16.23
2018-12-01T21:51:27.424Z,18.77
2018-12-01T21:53:55.704Z,18.73
2018-12-01T21:56:24.226Z,19.93
2018-12-01T21:58:52.922Z,20.97
2018-12-01T22:01:21.190Z,22.93
2018-12-01T22:03:49.423Z,19.00
2018-12-01T22:06:17.639Z,21.83
2018-12-01T22:08:45.868Z,19.20
2018-12-01T22:11:14.117Z,20.07
2018-12-01T22:13:42.356Z,16.70
2018-12-01T22:16:10.698Z,15.20
2018-12-01T22:18:38.975Z,16.30
2018-12-01T22:21:07.223Z,16.43
2018-12-01T22:23:35.484Z,16.17
2018-12-01T22:26:03.779Z,17.37
2018-12-01T22:28:35.440Z,17.97
2018-12-01T22:31:02.095Z,17.23
2018-12-01T22:33:30.816Z,16.07
2018-12-01T22:35:59.069Z,15.23
2018-12-01T22:38:27.324Z,15.70
2018-12-01T22:40:55.627Z,15.10
2018-12-01T22:43:23.858Z,15.70
2018-12-01T22:45:52.104Z,15.30
2018-12-01T22:48:21.134Z,15.57
2018-12-01T22:50:49.955Z,14.60
2018-12-01T22:53:18.220Z,14.70
2018-12-01T22:55:46.583Z,15.13
2018-12-01T22:58:15.421Z,14.53
2018-12-01T23:00:45.761Z,13.73
2018-12-01T23:03:14.008Z,13.07
2018-12-01T23:05:42.252Z,14.47
2018-12-01T23:08:12.116Z,13.37
2018-12-01T23:10:40.393Z,13.33
2018-12-01T23:13:08.908Z,13.83
2018-12-01T23:15:37.171Z,13.93
2018-12-01T23:18:08.731Z,15.00
2018-12-01T23:20:37.413Z,14.33
2018-12-01T23:23:06.454Z,15.23
2018-12-01T23:25:34.775Z,14.53
2018-12-01T23:28:06.590Z,15.77
2018-12-01T23:30:36.157Z,15.67
2018-12-01T23:33:14.302Z,16.23
2018-12-01T23:35:42.632Z,15.37
2018-12-01T23:38:10.909Z,14.63
2018-12-01T23:40:39.660Z,15.53
2018-12-01T23:43:07.958Z,14.90
2018-12-01T23:45:36.967Z,14.33
2018-12-01T23:48:05.549Z,14.03
2018-12-01T23:50:33.813Z,15.30
2018-12-01T23:53:05.319Z,16.10
2018-12-01T23:55:33.985Z,15.93
2018-12-01T23:58:05.351Z,16.10
